JST931 YBCS-YBBN
Flight info
| Callsign | JST931 |
|---|---|
| Flight time | N/A |
| Altitude | 37000 |
| Route | AKROM Y177 SMOKA |
| Aircraft | A321/M-SDE3FGHIRWY/LB1 |
Departure
| Time | 2026-04-27 09:27 |
|---|---|
| Airport | Cairns International Airport (YBCS) |
Arrival
| Time | N/A |
|---|---|
| Airport | Brisbane International Airport (YBBN) |
| Time | Latitude | Longitude | Altitude | Speed | Heading |
|---|---|---|---|---|---|
| 2026-04-27 08:36 | -16.87445 | 145.75136 | 16 ft | 0 kts | 66° |
| 2026-04-27 09:05 | -16.87445 | 145.75134 | 16 ft | 0 kts | 66° |
| 2026-04-27 09:06 | -16.87448 | 145.75128 | 16 ft | 1 kts | 66° |
| 2026-04-27 09:06 | -16.87453 | 145.75116 | 15 ft | 1 kts | 66° |
| 2026-04-27 09:06 | -16.87457 | 145.75105 | 15 ft | 0 kts | 66° |
| 2026-04-27 09:06 | -16.87458 | 145.75102 | 15 ft | 0 kts | 66° |
| 2026-04-27 09:07 | -16.87459 | 145.75102 | 15 ft | 0 kts | 66° |
| 2026-04-27 09:13 | -16.87461 | 145.75098 | 15 ft | 2 kts | 66° |
| 2026-04-27 09:14 | -16.87467 | 145.75084 | 15 ft | 1 kts | 66° |
| 2026-04-27 09:14 | -16.87471 | 145.75075 | 15 ft | 1 kts | 50° |
| 2026-04-27 09:14 | -16.87484 | 145.75067 | 15 ft | 2 kts | 4° |
| 2026-04-27 09:14 | -16.87493 | 145.75069 | 15 ft | 1 kts | 338° |
| 2026-04-27 09:15 | -16.87499 | 145.75072 | 15 ft | 0 kts | 335° |
| 2026-04-27 09:17 | -16.87493 | 145.75069 | 15 ft | 1 kts | 336° |
| 2026-04-27 09:17 | -16.87469 | 145.75058 | 15 ft | 6 kts | 337° |
| 2026-04-27 09:18 | -16.87417 | 145.75035 | 15 ft | 10 kts | 337° |
| 2026-04-27 09:18 | -16.87348 | 145.75000 | 15 ft | 11 kts | 320° |
| 2026-04-27 09:18 | -16.87305 | 145.74922 | 16 ft | 13 kts | 294° |
| 2026-04-27 09:18 | -16.87243 | 145.74855 | 17 ft | 13 kts | 334° |
| 2026-04-27 09:19 | -16.87159 | 145.74815 | 19 ft | 13 kts | 336° |
| 2026-04-27 09:19 | -16.87094 | 145.74785 | 19 ft | 0 kts | 336° |
| 2026-04-27 09:19 | -16.87093 | 145.74785 | 19 ft | 0 kts | 336° |
| 2026-04-27 09:22 | -16.87088 | 145.74783 | 19 ft | 2 kts | 336° |
| 2026-04-27 09:22 | -16.87060 | 145.74764 | 19 ft | 6 kts | 317° |
| 2026-04-27 09:22 | -16.87050 | 145.74713 | 19 ft | 4 kts | 251° |
| 2026-04-27 09:23 | -16.87052 | 145.74707 | 19 ft | 0 kts | 251° |
| 2026-04-27 09:26 | -16.87054 | 145.74701 | 19 ft | 2 kts | 251° |
| 2026-04-27 09:26 | -16.87068 | 145.74657 | 19 ft | 9 kts | 246° |
| 2026-04-27 09:26 | -16.87137 | 145.74614 | 19 ft | 14 kts | 179° |
| 2026-04-27 09:26 | -16.87306 | 145.74683 | 16 ft | 53 kts | 157° |
| 2026-04-27 09:27 | -16.87883 | 145.74944 | 16 ft | 125 kts | 156° |
| 2026-04-27 09:27 | -16.88853 | 145.75375 | 191 ft | 166 kts | 155° |
| 2026-04-27 09:27 | -16.89758 | 145.76051 | 901 ft | 162 kts | 121° |
| 2026-04-27 09:27 | -16.89977 | 145.77138 | 1574 ft | 161 kts | 79° |
| 2026-04-27 09:28 | -16.89384 | 145.78131 | 2170 ft | 168 kts | 45° |
| 2026-04-27 09:28 | -16.88464 | 145.78874 | 2778 ft | 171 kts | 38° |
| 2026-04-27 09:28 | -16.87493 | 145.79582 | 3382 ft | 172 kts | 40° |
| 2026-04-27 09:28 | -16.86593 | 145.80382 | 3907 ft | 176 kts | 53° |
| 2026-04-27 09:29 | -16.85917 | 145.81490 | 4295 ft | 189 kts | 65° |
| 2026-04-27 09:29 | -16.85327 | 145.82764 | 4769 ft | 199 kts | 67° |
| 2026-04-27 09:29 | -16.84786 | 145.84116 | 5234 ft | 210 kts | 75° |
| 2026-04-27 09:29 | -16.84517 | 145.85661 | 5604 ft | 226 kts | 86° |
| 2026-04-27 09:30 | -16.84423 | 145.87390 | 5998 ft | 246 kts | 88° |
| 2026-04-27 09:30 | -16.84321 | 145.89224 | 6450 ft | 263 kts | 87° |
| 2026-04-27 09:30 | -16.84202 | 145.91164 | 7132 ft | 271 kts | 87° |
| 2026-04-27 09:30 | -16.84083 | 145.93109 | 7919 ft | 275 kts | 87° |
| 2026-04-27 09:31 | -16.83962 | 145.95114 | 8731 ft | 277 kts | 87° |
| 2026-04-27 09:31 | -16.83854 | 145.97121 | 9486 ft | 281 kts | 90° |
| 2026-04-27 09:31 | -16.84275 | 145.99100 | 10110 ft | 288 kts | 119° |
| 2026-04-27 09:31 | -16.85642 | 146.00648 | 10556 ft | 302 kts | 147° |
| 2026-04-27 09:32 | -16.87550 | 146.01657 | 10913 ft | 318 kts | 155° |
| 2026-04-27 09:32 | -16.89610 | 146.02653 | 11232 ft | 336 kts | 155° |
| 2026-04-27 09:32 | -16.91783 | 146.03726 | 11613 ft | 351 kts | 154° |
| 2026-04-27 09:32 | -16.93967 | 146.04835 | 12301 ft | 355 kts | 154° |
| 2026-04-27 09:33 | -16.96186 | 146.05983 | 13063 ft | 357 kts | 155° |
| 2026-04-27 09:33 | -16.98418 | 146.07147 | 13698 ft | 362 kts | 155° |
| 2026-04-27 09:33 | -17.00668 | 146.08325 | 14284 ft | 368 kts | 155° |
| 2026-04-27 09:33 | -17.02978 | 146.09538 | 14930 ft | 372 kts | 155° |
| 2026-04-27 09:34 | -17.05285 | 146.10753 | 15578 ft | 376 kts | 155° |
| 2026-04-27 09:34 | -17.07648 | 146.11999 | 16216 ft | 379 kts | 155° |
| 2026-04-27 09:34 | -17.10020 | 146.13251 | 16835 ft | 383 kts | 155° |
| 2026-04-27 09:34 | -17.12382 | 146.14494 | 17435 ft | 386 kts | 155° |
| 2026-04-27 09:35 | -17.14786 | 146.15756 | 17825 ft | 388 kts | 155° |
| 2026-04-27 09:35 | -17.17184 | 146.17018 | 17936 ft | 389 kts | 155° |
| 2026-04-27 09:35 | -17.19597 | 146.18291 | 17946 ft | 388 kts | 155° |
| 2026-04-27 09:35 | -17.21996 | 146.19556 | 17949 ft | 388 kts | 155° |
| 2026-04-27 09:36 | -17.24418 | 146.20836 | 17950 ft | 388 kts | 155° |
| 2026-04-27 09:36 | -17.26827 | 146.22111 | 17950 ft | 388 kts | 155° |
| 2026-04-27 09:36 | -17.29222 | 146.23378 | 17950 ft | 388 kts | 155° |
| 2026-04-27 09:36 | -17.31639 | 146.24658 | 17951 ft | 388 kts | 155° |
| 2026-04-27 09:37 | -17.34032 | 146.25926 | 17952 ft | 388 kts | 155° |
| 2026-04-27 09:37 | -17.36442 | 146.27205 | 17952 ft | 388 kts | 155° |
| 2026-04-27 09:37 | -17.38853 | 146.28484 | 17952 ft | 388 kts | 155° |
| 2026-04-27 09:37 | -17.41265 | 146.29762 | 17952 ft | 388 kts | 155° |
| 2026-04-27 09:38 | -17.43686 | 146.31045 | 18109 ft | 394 kts | 155° |
| 2026-04-27 09:38 | -17.46105 | 146.32329 | 18686 ft | 396 kts | 155° |
| 2026-04-27 09:38 | -17.48553 | 146.33629 | 19431 ft | 394 kts | 155° |
| 2026-04-27 09:38 | -17.50960 | 146.34909 | 20289 ft | 387 kts | 156° |
| 2026-04-27 09:39 | -17.53355 | 146.36183 | 21097 ft | 382 kts | 156° |
| 2026-04-27 09:39 | -17.55709 | 146.37436 | 21719 ft | 381 kts | 156° |
| 2026-04-27 09:39 | -17.58065 | 146.38689 | 22267 ft | 381 kts | 156° |
| 2026-04-27 09:39 | -17.60435 | 146.39947 | 22710 ft | 384 kts | 156° |
| 2026-04-27 09:40 | -17.62829 | 146.41220 | 23120 ft | 388 kts | 156° |
| 2026-04-27 09:40 | -17.65274 | 146.42519 | 23527 ft | 391 kts | 156° |
| 2026-04-27 09:40 | -17.67696 | 146.43808 | 23929 ft | 394 kts | 156° |
| 2026-04-27 09:40 | -17.70124 | 146.45100 | 24423 ft | 393 kts | 156° |
| 2026-04-27 09:41 | -17.72549 | 146.46394 | 25146 ft | 386 kts | 156° |
| 2026-04-27 09:41 | -17.74960 | 146.47681 | 25661 ft | 384 kts | 156° |
| 2026-04-27 09:41 | -17.77330 | 146.48944 | 26038 ft | 386 kts | 156° |
| 2026-04-27 09:41 | -17.79754 | 146.50233 | 26242 ft | 393 kts | 156° |
| 2026-04-27 09:42 | -17.82201 | 146.51533 | 26396 ft | 401 kts | 156° |
| 2026-04-27 09:42 | -17.84713 | 146.52872 | 26548 ft | 409 kts | 156° |
| 2026-04-27 09:42 | -17.87301 | 146.54250 | 26700 ft | 417 kts | 156° |
| 2026-04-27 09:42 | -17.89943 | 146.55658 | 26851 ft | 425 kts | 156° |
| 2026-04-27 09:43 | -17.92579 | 146.57063 | 26996 ft | 432 kts | 156° |
| 2026-04-27 09:43 | -17.95312 | 146.58522 | 27143 ft | 439 kts | 156° |
| 2026-04-27 09:43 | -17.98048 | 146.59984 | 27349 ft | 445 kts | 156° |
| 2026-04-27 09:43 | -18.00802 | 146.61456 | 27661 ft | 448 kts | 156° |
| 2026-04-27 09:44 | -18.03589 | 146.62950 | 28007 ft | 449 kts | 156° |
| 2026-04-27 09:44 | -18.06392 | 146.64450 | 28345 ft | 451 kts | 156° |
| 2026-04-27 09:44 | -18.09180 | 146.65945 | 28667 ft | 453 kts | 156° |
| 2026-04-27 09:44 | -18.12000 | 146.67468 | 28973 ft | 455 kts | 156° |
| 2026-04-27 09:45 | -18.14851 | 146.69000 | 29284 ft | 457 kts | 156° |
| 2026-04-27 09:45 | -18.17683 | 146.70520 | 29587 ft | 458 kts | 156° |
| 2026-04-27 09:45 | -18.20516 | 146.72040 | 29933 ft | 458 kts | 156° |
| 2026-04-27 09:45 | -18.23360 | 146.73567 | 30361 ft | 457 kts | 156° |
| 2026-04-27 09:46 | -18.26151 | 146.75066 | 30667 ft | 458 kts | 157° |
| 2026-04-27 09:46 | -18.29010 | 146.76601 | 30779 ft | 463 kts | 157° |
| 2026-04-27 09:46 | -18.31868 | 146.78134 | 30933 ft | 467 kts | 157° |
| 2026-04-27 09:46 | -18.34817 | 146.79718 | 31210 ft | 469 kts | 157° |
| 2026-04-27 09:47 | -18.37693 | 146.81340 | 31565 ft | 469 kts | 155° |
| 2026-04-27 09:47 | -18.40519 | 146.82988 | 31930 ft | 468 kts | 155° |
| 2026-04-27 09:47 | -18.43377 | 146.84670 | 32278 ft | 467 kts | 155° |
| 2026-04-27 09:47 | -18.46207 | 146.86336 | 32603 ft | 467 kts | 155° |
| 2026-04-27 09:48 | -18.49058 | 146.88014 | 32921 ft | 466 kts | 155° |
| 2026-04-27 09:48 | -18.51911 | 146.89693 | 33234 ft | 466 kts | 155° |
| 2026-04-27 09:48 | -18.54719 | 146.91342 | 33537 ft | 465 kts | 155° |
| 2026-04-27 09:48 | -18.57549 | 146.93005 | 33836 ft | 465 kts | 155° |
| 2026-04-27 09:49 | -18.60383 | 146.94672 | 34130 ft | 464 kts | 155° |
| 2026-04-27 09:49 | -18.63164 | 146.96307 | 34415 ft | 464 kts | 155° |
| 2026-04-27 09:49 | -18.65987 | 146.97967 | 34708 ft | 463 kts | 156° |
| 2026-04-27 09:49 | -18.68792 | 146.99618 | 34985 ft | 462 kts | 156° |
| 2026-04-27 09:50 | -18.71568 | 147.01253 | 35250 ft | 462 kts | 156° |
| 2026-04-27 09:50 | -18.74383 | 147.02911 | 35524 ft | 461 kts | 156° |
| 2026-04-27 09:50 | -18.77177 | 147.04556 | 35791 ft | 460 kts | 156° |
| 2026-04-27 09:50 | -18.79961 | 147.06197 | 36053 ft | 459 kts | 156° |
| 2026-04-27 09:51 | -18.82749 | 147.07840 | 36308 ft | 458 kts | 156° |
| 2026-04-27 09:51 | -18.85540 | 147.09486 | 36556 ft | 458 kts | 156° |
| 2026-04-27 09:51 | -18.88310 | 147.11122 | 36783 ft | 457 kts | 156° |
| 2026-04-27 09:51 | -18.91083 | 147.12758 | 36940 ft | 457 kts | 156° |
| 2026-04-27 09:52 | -18.93855 | 147.14392 | 36956 ft | 461 kts | 156° |
| 2026-04-27 09:52 | -18.99507 | 147.17726 | 36960 ft | 468 kts | 156° |
| 2026-04-27 09:53 | -19.05232 | 147.21111 | 36960 ft | 468 kts | 156° |
| 2026-04-27 09:53 | -19.10896 | 147.24463 | 36961 ft | 468 kts | 157° |
| 2026-04-27 09:54 | -19.16605 | 147.27830 | 36960 ft | 468 kts | 157° |
| 2026-04-27 09:54 | -19.22307 | 147.31201 | 36960 ft | 468 kts | 157° |
| 2026-04-27 09:55 | -19.27997 | 147.34573 | 36961 ft | 468 kts | 157° |
| 2026-04-27 09:55 | -19.36482 | 147.39613 | 36962 ft | 468 kts | 157° |
| 2026-04-27 09:56 | -19.42171 | 147.42996 | 36962 ft | 467 kts | 157° |
| 2026-04-27 09:56 | -19.47840 | 147.46370 | 36963 ft | 466 kts | 157° |
| 2026-04-27 09:57 | -19.53473 | 147.49727 | 36964 ft | 465 kts | 157° |
| 2026-04-27 09:57 | -19.59138 | 147.53107 | 36964 ft | 465 kts | 157° |
| 2026-04-27 09:58 | -19.64758 | 147.56467 | 36965 ft | 465 kts | 157° |
| 2026-04-27 09:58 | -19.70368 | 147.59813 | 36966 ft | 465 kts | 158° |
| 2026-04-27 09:59 | -19.75994 | 147.63150 | 36967 ft | 465 kts | 158° |
| 2026-04-27 09:59 | -19.81680 | 147.66540 | 36968 ft | 466 kts | 157° |
| 2026-04-27 10:00 | -19.87295 | 147.69922 | 36970 ft | 466 kts | 157° |
| 2026-04-27 10:00 | -19.92938 | 147.73311 | 36971 ft | 466 kts | 157° |
| 2026-04-27 10:01 | -19.98568 | 147.76688 | 36972 ft | 465 kts | 157° |
| 2026-04-27 10:01 | -20.04184 | 147.80052 | 36973 ft | 466 kts | 157° |
| 2026-04-27 10:02 | -20.09823 | 147.83434 | 36974 ft | 466 kts | 157° |
| 2026-04-27 10:02 | -20.15440 | 147.86793 | 36976 ft | 466 kts | 158° |
| 2026-04-27 10:03 | -20.21094 | 147.90178 | 36977 ft | 466 kts | 157° |
| 2026-04-27 10:03 | -20.26755 | 147.93578 | 36978 ft | 466 kts | 158° |
| 2026-04-27 10:04 | -20.32411 | 147.96977 | 36978 ft | 467 kts | 158° |
| 2026-04-27 10:04 | -20.38059 | 148.00377 | 36980 ft | 467 kts | 158° |
| 2026-04-27 10:05 | -20.43692 | 148.03772 | 36981 ft | 467 kts | 158° |
| 2026-04-27 10:05 | -20.49336 | 148.07176 | 36981 ft | 466 kts | 158° |
| 2026-04-27 10:06 | -20.54940 | 148.10559 | 36981 ft | 467 kts | 158° |
| 2026-04-27 10:06 | -20.60575 | 148.13963 | 36983 ft | 467 kts | 158° |
| 2026-04-27 10:07 | -20.66234 | 148.17384 | 36982 ft | 467 kts | 158° |
| 2026-04-27 10:07 | -20.71921 | 148.20825 | 36983 ft | 468 kts | 158° |
| 2026-04-27 10:08 | -20.77563 | 148.24242 | 36983 ft | 467 kts | 158° |
| 2026-04-27 10:08 | -20.83198 | 148.27660 | 36983 ft | 467 kts | 158° |
| 2026-04-27 10:09 | -20.88829 | 148.31076 | 36983 ft | 467 kts | 158° |
| 2026-04-27 10:09 | -20.94449 | 148.34488 | 36983 ft | 467 kts | 159° |
| 2026-04-27 10:10 | -21.00085 | 148.37913 | 36985 ft | 468 kts | 159° |
| 2026-04-27 10:10 | -21.05729 | 148.41345 | 36984 ft | 468 kts | 159° |
| 2026-04-27 10:11 | -21.11360 | 148.44774 | 36986 ft | 467 kts | 159° |
| 2026-04-27 10:11 | -21.17047 | 148.48225 | 36985 ft | 467 kts | 159° |
| 2026-04-27 10:12 | -21.22694 | 148.51662 | 36985 ft | 467 kts | 159° |
| 2026-04-27 10:12 | -21.28319 | 148.55092 | 36985 ft | 467 kts | 159° |
| 2026-04-27 10:13 | -21.34007 | 148.58566 | 36985 ft | 468 kts | 159° |
| 2026-04-27 10:13 | -21.39624 | 148.62001 | 36985 ft | 468 kts | 159° |
| 2026-04-27 10:14 | -21.45270 | 148.65457 | 36982 ft | 468 kts | 159° |
| 2026-04-27 10:14 | -21.50899 | 148.68936 | 36984 ft | 468 kts | 159° |
| 2026-04-27 10:15 | -21.56511 | 148.72400 | 36985 ft | 468 kts | 159° |
| 2026-04-27 10:15 | -21.62148 | 148.75867 | 36985 ft | 467 kts | 159° |
| 2026-04-27 10:16 | -21.67747 | 148.79309 | 36985 ft | 467 kts | 159° |
| 2026-04-27 10:16 | -21.73392 | 148.82781 | 36985 ft | 467 kts | 159° |
| 2026-04-27 10:17 | -21.79026 | 148.86247 | 36985 ft | 467 kts | 159° |
| 2026-04-27 10:17 | -21.84643 | 148.89708 | 36985 ft | 467 kts | 159° |
| 2026-04-27 10:18 | -21.90246 | 148.93164 | 36985 ft | 467 kts | 159° |
| 2026-04-27 10:18 | -21.95897 | 148.96651 | 36986 ft | 467 kts | 159° |
| 2026-04-27 10:19 | -22.01487 | 149.00105 | 36986 ft | 468 kts | 160° |
| 2026-04-27 10:19 | -22.07150 | 149.03612 | 36989 ft | 468 kts | 160° |
| 2026-04-27 10:20 | -22.12780 | 149.07088 | 36989 ft | 468 kts | 160° |
| 2026-04-27 10:20 | -22.18420 | 149.10567 | 36988 ft | 468 kts | 160° |
| 2026-04-27 10:21 | -22.24023 | 149.14033 | 36989 ft | 468 kts | 160° |
| 2026-04-27 10:21 | -22.29694 | 149.17551 | 36988 ft | 469 kts | 160° |
| 2026-04-27 10:22 | -22.35320 | 149.21046 | 36988 ft | 470 kts | 160° |
| 2026-04-27 10:22 | -22.40999 | 149.24579 | 36989 ft | 470 kts | 160° |
| 2026-04-27 10:23 | -22.46652 | 149.28098 | 36989 ft | 470 kts | 160° |
| 2026-04-27 10:23 | -22.52276 | 149.31601 | 36989 ft | 470 kts | 160° |
| 2026-04-27 10:24 | -22.57946 | 149.35138 | 36989 ft | 470 kts | 160° |
| 2026-04-27 10:24 | -22.63584 | 149.38657 | 36988 ft | 470 kts | 160° |
| 2026-04-27 10:25 | -22.69264 | 149.42207 | 36989 ft | 470 kts | 160° |
| 2026-04-27 10:25 | -22.74888 | 149.45725 | 36989 ft | 470 kts | 160° |
| 2026-04-27 10:26 | -22.80520 | 149.49254 | 36989 ft | 469 kts | 161° |
| 2026-04-27 10:26 | -22.86164 | 149.52792 | 36988 ft | 469 kts | 161° |
| 2026-04-27 10:27 | -22.91811 | 149.56339 | 36988 ft | 469 kts | 161° |
| 2026-04-27 10:27 | -22.97436 | 149.59878 | 36988 ft | 469 kts | 161° |
| 2026-04-27 10:28 | -23.03089 | 149.63437 | 36988 ft | 469 kts | 161° |
| 2026-04-27 10:28 | -23.08747 | 149.67001 | 36987 ft | 470 kts | 160° |
| 2026-04-27 10:29 | -23.14359 | 149.70555 | 36989 ft | 470 kts | 161° |
| 2026-04-27 10:29 | -23.20006 | 149.74126 | 36988 ft | 470 kts | 161° |
| 2026-04-27 10:30 | -23.25658 | 149.77702 | 36988 ft | 470 kts | 161° |
| 2026-04-27 10:30 | -23.31329 | 149.81294 | 36989 ft | 470 kts | 161° |
| 2026-04-27 10:31 | -23.36977 | 149.84877 | 36988 ft | 469 kts | 161° |
| 2026-04-27 10:31 | -23.42576 | 149.88432 | 36990 ft | 468 kts | 161° |
| 2026-04-27 10:32 | -23.48206 | 149.92009 | 36990 ft | 468 kts | 161° |
| 2026-04-27 10:32 | -23.53823 | 149.95583 | 36991 ft | 466 kts | 162° |
| 2026-04-27 10:33 | -23.59400 | 149.99133 | 36990 ft | 466 kts | 162° |
| 2026-04-27 10:33 | -23.65029 | 150.02722 | 36992 ft | 465 kts | 162° |
| 2026-04-27 10:34 | -23.70606 | 150.06279 | 36992 ft | 465 kts | 162° |
| 2026-04-27 10:34 | -23.76187 | 150.09842 | 36992 ft | 465 kts | 162° |
| 2026-04-27 10:35 | -23.81781 | 150.13419 | 36992 ft | 465 kts | 162° |
| 2026-04-27 10:35 | -23.87335 | 150.16974 | 36994 ft | 465 kts | 162° |